No particular awareness of the weather is required.    There are no Weather-warnings


Meteo18 Weather Cam more information Meteo18 Weather Cam


Thunder radar more information blitzortung!


Rain radar more information rain snow radar


Visit our other weather sites:

Template documentation
and downloads

And another site



Weather Underground History page Text

Daily Summary for June 30, 2017 Units:  Both    English   Metric
« Previous Day
Next Day »
Daily Weekly Monthly Yearly Custom
  High: Low: Average:
Temperature: TemperatureC °F /  -17.8 °C 12.0 °F /  -11.1 °C 13.8 °F /  -10.1 °C
Dew Point: DewpointC °F /  -17.8 °C 10.3 °F /  -12.1 °C 11.9 °F /  -11.2 °C
Humidity: Humidity % 79 % 88 %
Wind Speed: WindSpeedKMH mph /  0 km/h - 8.8 mph /  14.2 km/h
Wind Gust: WindSpeedGustKMH mph /  0 km/h - -
Wind:- - SW
Pressure: PressurehPa in /  0 hPa 1005.6 in /  34049.6 hPa -
Precipitation: 10.7 in /  271.78 mm    
Historical Graphs
 
 
Tabular Data for June 30, 2017
Time Temperature Dew Point Pressure Wind Wind Speed Wind Gust Humidity Rainfall Rate (Hourly)
TemperatureC °F /  -17.8 °C DewpointC °F /  -17.8 °C PressurehPa in /  0 hPa Calm     Humidity % HourlyPrecipMM in /  0 mm
00:02 14.2 °F /  -9.9 °C 11.4 °F /  -11.4 °C 1006.0 in /  34063.2 hPa SSW 9.7 mph /  15.6 km/h 25.7 mph /  41.4 km/h 83 % 0.0 in /  0 mm
00:12 14.2 °F /  -9.9 °C 11.2 °F /  -11.6 °C 1006.0 in /  34063.2 hPa SSW 16.1 mph /  25.9 km/h 22.5 mph /  36.2 km/h 82 % 0.0 in /  0 mm
00:17 14.0 °F /  -10 °C 11.2 °F /  -11.6 °C 1006.0 in /  34063.2 hPa SSW 11.3 mph /  18.2 km/h 25.7 mph /  41.4 km/h 83 % 0.0 in /  0 mm
00:22 13.9 °F /  -10.1 °C 11.1 °F /  -11.6 °C 1006.0 in /  34063.2 hPa SW 12.9 mph /  20.8 km/h 25.7 mph /  41.4 km/h 83 % 0.0 in /  0 mm
00:32 13.7 °F /  -10.2 °C 10.9 °F /  -11.7 °C 1006.0 in /  34063.2 hPa South 9.7 mph /  15.6 km/h 25.7 mph /  41.4 km/h 83 % 0.0 in /  0 mm
00:42 13.2 °F /  -10.4 °C 10.7 °F /  -11.8 °C 1006.3 in /  34073.3 hPa SSW 6.4 mph /  10.3 km/h 25.7 mph /  41.4 km/h 85 % 0.0 in /  0 mm
00:52 12.9 °F /  -10.6 °C 10.8 °F /  -11.8 °C 1006.3 in /  34073.3 hPa SSW 3.2 mph /  5.1 km/h 19.3 mph /  31.1 km/h 87 % 0.0 in /  0 mm
00:57 12.9 °F /  -10.6 °C 10.8 °F /  -11.8 °C 1006.3 in /  34073.3 hPa SW 9.7 mph /  15.6 km/h 12.9 mph /  20.8 km/h 87 % 0.0 in /  0 mm
01:02 12.9 °F /  -10.6 °C 10.8 °F /  -11.8 °C 1006.3 in /  34073.3 hPa SSW 8.0 mph /  12.9 km/h 12.9 mph /  20.8 km/h 87 % 0.0 in /  0 mm
01:07 12.9 °F /  -10.6 °C 10.8 °F /  -11.8 °C 1006.3 in /  34073.3 hPa SSW 12.9 mph /  20.8 km/h 16.1 mph /  25.9 km/h 87 % 0.0 in /  0 mm
01:12 12.9 °F /  -10.6 °C 10.8 °F /  -11.8 °C 1006.0 in /  34063.2 hPa SSW 4.8 mph /  7.7 km/h 16.1 mph /  25.9 km/h 87 % 0.0 in /  0 mm
01:17 12.8 °F /  -10.7 °C 10.7 °F /  -11.8 °C 1006.3 in /  34073.3 hPa SSW 3.2 mph /  5.1 km/h 16.1 mph /  25.9 km/h 87 % 0.0 in /  0 mm
01:22 12.7 °F /  -10.7 °C 10.6 °F /  -11.9 °C 1006.3 in /  34073.3 hPa SW 4.8 mph /  7.7 km/h 16.1 mph /  25.9 km/h 87 % 0.0 in /  0 mm
01:32 12.6 °F /  -10.8 °C 10.5 °F /  -11.9 °C 1006.3 in /  34073.3 hPa South 3.2 mph /  5.1 km/h 16.1 mph /  25.9 km/h 87 % 0.0 in /  0 mm
01:37 12.5 °F /  -10.8 °C 10.6 °F /  -11.9 °C 1006.3 in /  34073.3 hPa Calm   12.9 mph /  20.8 km/h 88 % 0.0 in /  0 mm
01:42 12.3 °F /  -10.9 °C 10.4 °F /  -12 °C 1006.7 in /  34086.9 hPa Calm   12.9 mph /  20.8 km/h 88 % 0.0 in /  0 mm
01:47 12.2 °F /  -11 °C 10.4 °F /  -12 °C 1006.7 in /  34086.9 hPa SW 4.8 mph /  7.7 km/h 8.0 mph /  12.9 km/h 89 % 0.0 in /  0 mm
01:52 12.2 °F /  -11 °C 10.4 °F /  -12 °C 1006.7 in /  34086.9 hPa SE 3.2 mph /  5.1 km/h 8.0 mph /  12.9 km/h 89 % 0.0 in /  0 mm
01:57 12.2 °F /  -11 °C 10.4 °F /  -12 °C 1006.7 in /  34086.9 hPa South 3.2 mph /  5.1 km/h 8.0 mph /  12.9 km/h 89 % 0.0 in /  0 mm
02:02 12.3 °F /  -10.9 °C 10.5 °F /  -11.9 °C 1006.7 in /  34086.9 hPa SSW 1.6 mph /  2.6 km/h 8.0 mph /  12.9 km/h 89 % 0.0 in /  0 mm
02:12 12.3 °F /  -10.9 °C 10.5 °F /  -11.9 °C 1006.7 in /  34086.9 hPa SSW 1.6 mph /  2.6 km/h 11.3 mph /  18.2 km/h 89 % 0.0 in /  0 mm
02:17 12.2 °F /  -11 °C 10.4 °F /  -12 °C 1006.7 in /  34086.9 hPa SSW 1.6 mph /  2.6 km/h 11.3 mph /  18.2 km/h 89 % 0.0 in /  0 mm
02:22 12.1 °F /  -11.1 °C 10.3 °F /  -12.1 °C 1006.3 in /  34073.3 hPa SW 3.2 mph /  5.1 km/h 9.7 mph /  15.6 km/h 89 % 0.0 in /  0 mm
02:27 12.0 °F /  -11.1 °C 10.4 °F /  -12 °C 1006.3 in /  34073.3 hPa SSW 3.2 mph /  5.1 km/h 8.0 mph /  12.9 km/h 90 % 0.0 in /  0 mm
02:32 12.2 °F /  -11 °C 10.6 °F /  -11.9 °C 1006.3 in /  34073.3 hPa ESE 9.7 mph /  15.6 km/h 9.7 mph /  15.6 km/h 90 % 0.0 in /  0 mm
02:37 12.3 °F /  -10.9 °C 10.5 °F /  -11.9 °C 1006.3 in /  34073.3 hPa SSW 3.2 mph /  5.1 km/h 14.5 mph /  23.3 km/h 89 % 0.0 in /  0 mm
02:42 12.4 °F /  -10.9 °C 10.5 °F /  -11.9 °C 1006.3 in /  34073.3 hPa SSW 9.7 mph /  15.6 km/h 14.5 mph /  23.3 km/h 88 % 0.0 in /  0 mm
02:47 12.6 °F /  -10.8 °C 10.7 °F /  -11.8 °C 1006.3 in /  34073.3 hPa SSW 6.4 mph /  10.3 km/h 14.5 mph /  23.3 km/h 88 % 0.0 in /  0 mm
02:52 12.6 °F /  -10.8 °C 10.7 °F /  -11.8 °C 1006.3 in /  34073.3 hPa SSW 3.2 mph /  5.1 km/h 14.5 mph /  23.3 km/h 88 % 0.0 in /  0 mm
02:57 12.6 °F /  -10.8 °C 10.7 °F /  -11.8 °C 1006.3 in /  34073.3 hPa South 3.2 mph /  5.1 km/h 16.1 mph /  25.9 km/h 88 % 0.0 in /  0 mm
03:02 12.6 °F /  -10.8 °C 10.5 °F /  -11.9 °C 1006.3 in /  34073.3 hPa South 4.8 mph /  7.7 km/h 16.1 mph /  25.9 km/h 87 % 0.0 in /  0 mm
03:12 12.6 °F /  -10.8 °C 10.7 °F /  -11.8 °C 1006.3 in /  34073.3 hPa SSW 4.8 mph /  7.7 km/h 16.1 mph /  25.9 km/h 88 % 0.0 in /  0 mm
03:17 12.5 °F /  -10.8 °C 10.6 °F /  -11.9 °C 1006.3 in /  34073.3 hPa SSW 6.4 mph /  10.3 km/h 12.9 mph /  20.8 km/h 88 % 0.0 in /  0 mm
03:22 12.4 °F /  -10.9 °C 10.5 °F /  -11.9 °C 1006.0 in /  34063.2 hPa SSW 6.4 mph /  10.3 km/h 12.9 mph /  20.8 km/h 88 % 0.0 in /  0 mm
03:27 12.4 °F /  -10.9 °C 10.5 °F /  -11.9 °C 1006.0 in /  34063.2 hPa SSE 1.6 mph /  2.6 km/h 11.3 mph /  18.2 km/h 88 % 0.0 in /  0 mm
03:32 12.4 °F /  -10.9 °C 10.5 °F /  -11.9 °C 1006.0 in /  34063.2 hPa SSW 6.4 mph /  10.3 km/h 11.3 mph /  18.2 km/h 88 % 0.0 in /  0 mm
03:42 12.6 °F /  -10.8 °C 10.7 °F /  -11.8 °C 1006.0 in /  34063.2 hPa South 4.8 mph /  7.7 km/h 11.3 mph /  18.2 km/h 88 % 0.0 in /  0 mm
03:47 12.6 °F /  -10.8 °C 10.7 °F /  -11.8 °C 1006.0 in /  34063.2 hPa SE 3.2 mph /  5.1 km/h 11.3 mph /  18.2 km/h 88 % 0.0 in /  0 mm
03:52 12.7 °F /  -10.7 °C 10.6 °F /  -11.9 °C 1006.0 in /  34063.2 hPa SSW 1.6 mph /  2.6 km/h 14.5 mph /  23.3 km/h 87 % 0.0 in /  0 mm
03:57 12.6 °F /  -10.8 °C 10.5 °F /  -11.9 °C 1006.0 in /  34063.2 hPa SSW 8.0 mph /  12.9 km/h 14.5 mph /  23.3 km/h 87 % 0.0 in /  0 mm
04:02 12.6 °F /  -10.8 °C 10.5 °F /  -11.9 °C 1006.0 in /  34063.2 hPa SSW 4.8 mph /  7.7 km/h 14.5 mph /  23.3 km/h 87 % 0.0 in /  0 mm
04:12 12.6 °F /  -10.8 °C 10.5 °F /  -11.9 °C 1005.6 in /  34049.6 hPa SW 9.7 mph /  15.6 km/h 14.5 mph /  23.3 km/h 87 % 0.0 in /  0 mm
04:17 12.7 °F /  -10.7 °C 10.6 °F /  -11.9 °C 1005.6 in /  34049.6 hPa South 4.8 mph /  7.7 km/h 22.5 mph /  36.2 km/h 87 % 0.0 in /  0 mm
04:22 12.7 °F /  -10.7 °C 10.6 °F /  -11.9 °C 1005.6 in /  34049.6 hPa SSE 6.4 mph /  10.3 km/h 22.5 mph /  36.2 km/h 87 % 0.0 in /  0 mm
04:32 13.1 °F /  -10.5 °C 11.0 °F /  -11.7 °C 1005.6 in /  34049.6 hPa SSW 6.4 mph /  10.3 km/h 17.7 mph /  28.5 km/h 87 % 0.0 in /  0 mm
04:37 13.1 °F /  -10.5 °C 11.0 °F /  -11.7 °C 1005.6 in /  34049.6 hPa SSW 8.0 mph /  12.9 km/h 22.5 mph /  36.2 km/h 87 % 0.0 in /  0 mm
04:42 13.1 °F /  -10.5 °C 11.2 °F /  -11.6 °C 1005.6 in /  34049.6 hPa South 3.2 mph /  5.1 km/h 22.5 mph /  36.2 km/h 88 % 0.0 in /  0 mm
04:47 13.0 °F /  -10.6 °C 11.1 °F /  -11.6 °C 1005.6 in /  34049.6 hPa South 3.2 mph /  5.1 km/h 22.5 mph /  36.2 km/h 88 % 0.0 in /  0 mm
04:52 12.9 °F /  -10.6 °C 11.0 °F /  -11.7 °C 1005.6 in /  34049.6 hPa SW 4.8 mph /  7.7 km/h 19.3 mph /  31.1 km/h 88 % 0.0 in /  0 mm
04:57 12.9 °F /  -10.6 °C 11.0 °F /  -11.7 °C 1005.6 in /  34049.6 hPa SSW 4.8 mph /  7.7 km/h 19.3 mph /  31.1 km/h 88 % 0.0 in /  0 mm
05:02 12.8 °F /  -10.7 °C 10.9 °F /  -11.7 °C 1005.6 in /  34049.6 hPa SW 6.4 mph /  10.3 km/h 17.7 mph /  28.5 km/h 88 % 0.0 in /  0 mm
05:12 12.8 °F /  -10.7 °C 11.0 °F /  -11.7 °C 1005.6 in /  34049.6 hPa SSW 9.7 mph /  15.6 km/h 17.7 mph /  28.5 km/h 89 % 0.0 in /  0 mm
05:22 12.7 °F /  -10.7 °C 11.1 °F /  -11.6 °C 1005.6 in /  34049.6 hPa SSW 8.0 mph /  12.9 km/h 14.5 mph /  23.3 km/h 90 % 0.0 in /  0 mm
05:32 12.6 °F /  -10.8 °C 11.2 °F /  -11.6 °C 1005.6 in /  34049.6 hPa SE 6.4 mph /  10.3 km/h 14.5 mph /  23.3 km/h 91 % 0.5 in /  12.7 mm
05:42 12.4 °F /  -10.9 °C 11.1 °F /  -11.6 °C 1005.6 in /  34049.6 hPa SSW 8.0 mph /  12.9 km/h 19.3 mph /  31.1 km/h 92 % 0.8 in /  20.32 mm
05:47 12.4 °F /  -10.9 °C 11.1 °F /  -11.6 °C 1005.6 in /  34049.6 hPa SSE 8.0 mph /  12.9 km/h 19.3 mph /  31.1 km/h 92 % 0.8 in /  20.32 mm
05:52 12.3 °F /  -10.9 °C 11.0 °F /  -11.7 °C 1005.6 in /  34049.6 hPa SW 4.8 mph /  7.7 km/h 17.7 mph /  28.5 km/h 92 % 1.3 in /  33.02 mm
06:02 12.3 °F /  -10.9 °C 11.2 °F /  -11.6 °C 1005.6 in /  34049.6 hPa ESE 4.8 mph /  7.7 km/h 14.5 mph /  23.3 km/h 93 % 1.5 in /  38.1 mm
06:07 12.2 °F /  -11 °C 11.1 °F /  -11.6 °C 1005.6 in /  34049.6 hPa SSE 4.8 mph /  7.7 km/h 14.5 mph /  23.3 km/h 93 % 1.5 in /  38.1 mm
06:17 12.2 °F /  -11 °C 11.3 °F /  -11.5 °C 1005.6 in /  34049.6 hPa SW 9.7 mph /  15.6 km/h 16.1 mph /  25.9 km/h 94 % 2.0 in /  50.8 mm
06:22 12.2 °F /  -11 °C 11.3 °F /  -11.5 °C 1005.6 in /  34049.6 hPa SSE 8.0 mph /  12.9 km/h 16.1 mph /  25.9 km/h 94 % 1.8 in /  45.72 mm
06:27 12.2 °F /  -11 °C 11.3 °F /  -11.5 °C 1005.6 in /  34049.6 hPa SSW 4.8 mph /  7.7 km/h 17.7 mph /  28.5 km/h 94 % 1.8 in /  45.72 mm
06:32 12.2 °F /  -11 °C 11.3 °F /  -11.5 °C 1005.6 in /  34049.6 hPa South 9.7 mph /  15.6 km/h 17.7 mph /  28.5 km/h 94 % 1.8 in /  45.72 mm
06:37 12.2 °F /  -11 °C 11.3 °F /  -11.5 °C 1005.6 in /  34049.6 hPa SSW 6.4 mph /  10.3 km/h 17.7 mph /  28.5 km/h 94 % 1.5 in /  38.1 mm
06:42 12.2 °F /  -11 °C 11.3 °F /  -11.5 °C 1005.6 in /  34049.6 hPa SSE 4.8 mph /  7.7 km/h 16.1 mph /  25.9 km/h 94 % 1.5 in /  38.1 mm
06:47 12.3 °F /  -10.9 °C 11.4 °F /  -11.4 °C 1005.6 in /  34049.6 hPa SW 11.3 mph /  18.2 km/h 16.1 mph /  25.9 km/h 94 % 1.5 in /  38.1 mm
06:52 12.3 °F /  -10.9 °C 11.4 °F /  -11.4 °C 1005.6 in /  34049.6 hPa SSW 6.4 mph /  10.3 km/h 17.7 mph /  28.5 km/h 94 % 0.5 in /  12.7 mm
07:02 12.4 °F /  -10.9 °C 11.5 °F /  -11.4 °C 1005.6 in /  34049.6 hPa SSE 8.0 mph /  12.9 km/h 17.7 mph /  28.5 km/h 94 % 0.5 in /  12.7 mm
07:07 12.5 °F /  -10.8 °C 11.6 °F /  -11.3 °C 1005.6 in /  34049.6 hPa South 8.0 mph /  12.9 km/h 17.7 mph /  28.5 km/h 94 % 0.5 in /  12.7 mm
07:17 12.6 °F /  -10.8 °C 11.7 °F /  -11.3 °C 1005.6 in /  34049.6 hPa SSW 9.7 mph /  15.6 km/h 19.3 mph /  31.1 km/h 94 % 0.0 in /  0 mm
07:22 12.6 °F /  -10.8 °C 11.7 °F /  -11.3 °C 1005.6 in /  34049.6 hPa South 11.3 mph /  18.2 km/h 16.1 mph /  25.9 km/h 94 % 0.0 in /  0 mm
07:32 12.6 °F /  -10.8 °C 11.7 °F /  -11.3 °C 1005.6 in /  34049.6 hPa SSW 3.2 mph /  5.1 km/h 12.9 mph /  20.8 km/h 94 % 0.3 in /  7.62 mm
07:37 12.6 °F /  -10.8 °C 11.7 °F /  -11.3 °C 1005.6 in /  34049.6 hPa SW 8.0 mph /  12.9 km/h 12.9 mph /  20.8 km/h 94 % 0.3 in /  7.62 mm
07:42 12.7 °F /  -10.7 °C 11.8 °F /  -11.2 °C 1005.6 in /  34049.6 hPa South 8.0 mph /  12.9 km/h 16.1 mph /  25.9 km/h 94 % 0.3 in /  7.62 mm
07:47 12.7 °F /  -10.7 °C 11.8 °F /  -11.2 °C 1005.6 in /  34049.6 hPa SSW 4.8 mph /  7.7 km/h 16.1 mph /  25.9 km/h 94 % 0.3 in /  7.62 mm
07:52 12.7 °F /  -10.7 °C 11.6 °F /  -11.3 °C 1005.6 in /  34049.6 hPa SSW 12.9 mph /  20.8 km/h 16.1 mph /  25.9 km/h 93 % 0.3 in /  7.62 mm
08:02 12.8 °F /  -10.7 °C 11.7 °F /  -11.3 °C 1005.6 in /  34049.6 hPa SW 4.8 mph /  7.7 km/h 19.3 mph /  31.1 km/h 93 % 0.3 in /  7.62 mm
08:07 12.9 °F /  -10.6 °C 11.8 °F /  -11.2 °C 1005.6 in /  34049.6 hPa SW 1.6 mph /  2.6 km/h 19.3 mph /  31.1 km/h 93 % 0.3 in /  7.62 mm
08:12 12.9 °F /  -10.6 °C 11.8 °F /  -11.2 °C 1005.6 in /  34049.6 hPa South 6.4 mph /  10.3 km/h 17.7 mph /  28.5 km/h 93 % 0.3 in /  7.62 mm
08:17 12.9 °F /  -10.6 °C 11.8 °F /  -11.2 °C 1006.0 in /  34063.2 hPa SSE 4.8 mph /  7.7 km/h 17.7 mph /  28.5 km/h 93 % 0.3 in /  7.62 mm
08:22 12.9 °F /  -10.6 °C 11.8 °F /  -11.2 °C 1006.0 in /  34063.2 hPa SSE 11.3 mph /  18.2 km/h 19.3 mph /  31.1 km/h 93 % 0.3 in /  7.62 mm
08:32 12.8 °F /  -10.7 °C 11.7 °F /  -11.3 °C 1006.0 in /  34063.2 hPa SSW 4.8 mph /  7.7 km/h 19.3 mph /  31.1 km/h 93 % 0.5 in /  12.7 mm
08:42 12.8 °F /  -10.7 °C 11.7 °F /  -11.3 °C 1006.0 in /  34063.2 hPa WSW 8.0 mph /  12.9 km/h 17.7 mph /  28.5 km/h 93 % 0.8 in /  20.32 mm
08:47 12.7 °F /  -10.7 °C 11.6 °F /  -11.3 °C 1006.0 in /  34063.2 hPa SE 4.8 mph /  7.7 km/h 17.7 mph /  28.5 km/h 93 % 0.8 in /  20.32 mm
08:52 12.7 °F /  -10.7 °C 11.6 °F /  -11.3 °C 1006.0 in /  34063.2 hPa WSW 4.8 mph /  7.7 km/h 19.3 mph /  31.1 km/h 93 % 1.0 in /  25.4 mm
09:02 12.7 °F /  -10.7 °C 11.8 °F /  -11.2 °C 1006.3 in /  34073.3 hPa South 4.8 mph /  7.7 km/h 19.3 mph /  31.1 km/h 94 % 1.5 in /  38.1 mm
09:12 12.8 °F /  -10.7 °C 11.9 °F /  -11.2 °C 1006.3 in /  34073.3 hPa SSW 6.4 mph /  10.3 km/h 19.3 mph /  31.1 km/h 94 % 1.5 in /  38.1 mm
09:22 12.8 °F /  -10.7 °C 11.9 °F /  -11.2 °C 1006.3 in /  34073.3 hPa SSE 9.7 mph /  15.6 km/h 16.1 mph /  25.9 km/h 94 % 1.5 in /  38.1 mm
09:32 12.9 °F /  -10.6 °C 12.0 °F /  -11.1 °C 1006.3 in /  34073.3 hPa SE 4.8 mph /  7.7 km/h 16.1 mph /  25.9 km/h 94 % 1.5 in /  38.1 mm
09:37 12.9 °F /  -10.6 °C 12.0 °F /  -11.1 °C 1006.3 in /  34073.3 hPa SE 11.3 mph /  18.2 km/h 16.1 mph /  25.9 km/h 94 % 1.5 in /  38.1 mm
09:42 12.9 °F /  -10.6 °C 12.0 °F /  -11.1 °C 1006.3 in /  34073.3 hPa ESE 9.7 mph /  15.6 km/h 19.3 mph /  31.1 km/h 94 % 1.3 in /  33.02 mm
09:47 12.9 °F /  -10.6 °C 12.0 °F /  -11.1 °C 1006.3 in /  34073.3 hPa South 11.3 mph /  18.2 km/h 19.3 mph /  31.1 km/h 94 % 1.3 in /  33.02 mm
09:52 12.9 °F /  -10.6 °C 12.0 °F /  -11.1 °C 1006.3 in /  34073.3 hPa SSW 1.6 mph /  2.6 km/h 19.3 mph /  31.1 km/h 94 % 1.0 in /  25.4 mm
10:02 12.9 °F /  -10.6 °C 12.0 °F /  -11.1 °C 1006.3 in /  34073.3 hPa SSW 14.5 mph /  23.3 km/h 17.7 mph /  28.5 km/h 94 % 1.0 in /  25.4 mm
10:12 12.9 °F /  -10.6 °C 12.0 °F /  -11.1 °C 1006.7 in /  34086.9 hPa SSW 11.3 mph /  18.2 km/h 19.3 mph /  31.1 km/h 94 % 1.5 in /  38.1 mm
10:17 12.9 °F /  -10.6 °C 12.1 °F /  -11.1 °C 1006.7 in /  34086.9 hPa SSW 9.7 mph /  15.6 km/h 19.3 mph /  31.1 km/h 95 % 1.5 in /  38.1 mm
10:27 13.1 °F /  -10.5 °C 12.3 °F /  -10.9 °C 1006.7 in /  34086.9 hPa SSW 9.7 mph /  15.6 km/h 19.3 mph /  31.1 km/h 95 % 1.3 in /  33.02 mm
10:32 13.2 °F /  -10.4 °C 12.4 °F /  -10.9 °C 1006.7 in /  34086.9 hPa SW 12.9 mph /  20.8 km/h 24.1 mph /  38.8 km/h 95 % 1.0 in /  25.4 mm
10:42 13.7 °F /  -10.2 °C 12.9 °F /  -10.6 °C 1006.7 in /  34086.9 hPa SW 20.9 mph /  33.6 km/h 24.1 mph /  38.8 km/h 95 % 0.8 in /  20.32 mm
10:47 13.9 °F /  -10.1 °C 12.9 °F /  -10.6 °C 1006.7 in /  34086.9 hPa SW 14.5 mph /  23.3 km/h 24.1 mph /  38.8 km/h 94 % 0.8 in /  20.32 mm
10:52 14.0 °F /  -10 °C 12.9 °F /  -10.6 °C 1006.7 in /  34086.9 hPa SSW 14.5 mph /  23.3 km/h 24.1 mph /  38.8 km/h 93 % 0.5 in /  12.7 mm
10:57 14.1 °F /  -9.9 °C 13.0 °F /  -10.6 °C 1006.7 in /  34086.9 hPa South 9.7 mph /  15.6 km/h 24.1 mph /  38.8 km/h 93 % 0.5 in /  12.7 mm
11:02 14.1 °F /  -9.9 °C 13.0 °F /  -10.6 °C 1006.7 in /  34086.9 hPa SW 16.1 mph /  25.9 km/h 24.1 mph /  38.8 km/h 93 % 0.5 in /  12.7 mm
11:12 14.1 °F /  -9.9 °C 13.0 °F /  -10.6 °C 1006.7 in /  34086.9 hPa WSW 11.3 mph /  18.2 km/h 24.1 mph /  38.8 km/h 93 % 0.0 in /  0 mm
11:17 14.1 °F /  -9.9 °C 13.0 °F /  -10.6 °C 1006.7 in /  34086.9 hPa SSW 9.7 mph /  15.6 km/h 24.1 mph /  38.8 km/h 93 % 0.0 in /  0 mm
11:22 14.2 °F /  -9.9 °C 13.1 °F /  -10.5 °C 1006.7 in /  34086.9 hPa SW 11.3 mph /  18.2 km/h 22.5 mph /  36.2 km/h 93 % 0.0 in /  0 mm
11:32 14.6 °F /  -9.7 °C 13.3 °F /  -10.4 °C 1006.7 in /  34086.9 hPa SW 14.5 mph /  23.3 km/h 30.6 mph /  49.2 km/h 92 % 0.0 in /  0 mm
11:37 14.7 °F /  -9.6 °C 13.1 °F /  -10.5 °C 1006.7 in /  34086.9 hPa WSW 17.7 mph /  28.5 km/h 30.6 mph /  49.2 km/h 90 % 0.0 in /  0 mm
11:42 14.7 °F /  -9.6 °C 13.2 °F /  -10.4 °C 1006.7 in /  34086.9 hPa SW 17.7 mph /  28.5 km/h 32.2 mph /  51.8 km/h 91 % 0.0 in /  0 mm
11:47 14.7 °F /  -9.6 °C 13.1 °F /  -10.5 °C 1006.7 in /  34086.9 hPa WSW 12.9 mph /  20.8 km/h 32.2 mph /  51.8 km/h 90 % 0.0 in /  0 mm
11:52 14.8 °F /  -9.6 °C 13.2 °F /  -10.4 °C 1007.0 in /  34097 hPa WSW 8.0 mph /  12.9 km/h 33.8 mph /  54.4 km/h 90 % 0.0 in /  0 mm
11:57 14.7 °F /  -9.6 °C 13.1 °F /  -10.5 °C 1007.0 in /  34097 hPa South 24.1 mph /  38.8 km/h 33.8 mph /  54.4 km/h 90 % 0.0 in /  0 mm
12:02 14.4 °F /  -9.8 °C 12.9 °F /  -10.6 °C 1007.0 in /  34097 hPa SSW 4.8 mph /  7.7 km/h 25.7 mph /  41.4 km/h 91 % 0.3 in /  7.62 mm
12:12 14.1 °F /  -9.9 °C 13.0 °F /  -10.6 °C 1007.0 in /  34097 hPa SW 25.7 mph /  41.4 km/h 25.7 mph /  41.4 km/h 93 % 2.8 in /  71.12 mm
12:17 14.2 °F /  -9.9 °C 13.2 °F /  -10.4 °C 1007.0 in /  34097 hPa WSW 14.5 mph /  23.3 km/h 24.1 mph /  38.8 km/h 94 % 2.8 in /  71.12 mm
12:22 14.4 °F /  -9.8 °C 13.4 °F /  -10.3 °C 1007.0 in /  34097 hPa SW 16.1 mph /  25.9 km/h 24.1 mph /  38.8 km/h 94 % 3.3 in /  83.82 mm
12:32 14.8 °F /  -9.6 °C 13.3 °F /  -10.4 °C 1007.0 in /  34097 hPa SSW 11.3 mph /  18.2 km/h 25.7 mph /  41.4 km/h 91 % 3.3 in /  83.82 mm
12:37 15.0 °F /  -9.4 °C 13.7 °F /  -10.2 °C 1007.0 in /  34097 hPa South 11.3 mph /  18.2 km/h 25.7 mph /  41.4 km/h 92 % 3.3 in /  83.82 mm
12:42 14.8 °F /  -9.6 °C 13.3 °F /  -10.4 °C 1007.0 in /  34097 hPa SW 17.7 mph /  28.5 km/h 25.7 mph /  41.4 km/h 91 % 3.3 in /  83.82 mm
12:47 14.3 °F /  -9.8 °C 12.9 °F /  -10.6 °C 1007.3 in /  34107.2 hPa SW 20.9 mph /  33.6 km/h 25.7 mph /  41.4 km/h 91 % 3.3 in /  83.82 mm
12:52 14.1 °F /  -9.9 °C 12.8 °F /  -10.7 °C 1007.3 in /  34107.2 hPa WSW 16.1 mph /  25.9 km/h 25.7 mph /  41.4 km/h 92 % 3.8 in /  96.52 mm
12:57 14.1 °F /  -9.9 °C 12.8 °F /  -10.7 °C 1007.3 in /  34107.2 hPa WSW 9.7 mph /  15.6 km/h 33.8 mph /  54.4 km/h 92 % 3.8 in /  96.52 mm
13:02 14.2 °F /  -9.9 °C 12.8 °F /  -10.7 °C 1007.3 in /  34107.2 hPa West 12.9 mph /  20.8 km/h 33.8 mph /  54.4 km/h 91 % 3.8 in /  96.52 mm
13:12 14.8 °F /  -9.6 °C 13.5 °F /  -10.3 °C 1007.3 in /  34107.2 hPa SW 12.9 mph /  20.8 km/h 29.0 mph /  46.7 km/h 92 % 2.3 in /  58.42 mm
13:17 15.0 °F /  -9.4 °C 13.4 °F /  -10.3 °C 1007.3 in /  34107.2 hPa West 4.8 mph /  7.7 km/h 29.0 mph /  46.7 km/h 90 % 2.3 in /  58.42 mm
13:22 15.6 °F /  -9.1 °C 14.1 °F /  -9.9 °C 1007.3 in /  34107.2 hPa South 6.4 mph /  10.3 km/h 25.7 mph /  41.4 km/h 91 % 0.5 in /  12.7 mm
13:32 16.1 °F /  -8.8 °C 13.8 °F /  -10.1 °C 1007.3 in /  34107.2 hPa WSW 6.4 mph /  10.3 km/h 29.0 mph /  46.7 km/h 86 % 0.5 in /  12.7 mm
13:37 15.5 °F /  -9.2 °C 12.8 °F /  -10.7 °C 1007.7 in /  34120.7 hPa SW 12.9 mph /  20.8 km/h 29.0 mph /  46.7 km/h 84 % 0.5 in /  12.7 mm
13:42 14.9 °F /  -9.5 °C 12.8 °F /  -10.7 °C 1007.3 in /  34107.2 hPa West 16.1 mph /  25.9 km/h 27.4 mph /  44.1 km/h 87 % 0.5 in /  12.7 mm
13:52 14.7 °F /  -9.6 °C 13.1 °F /  -10.5 °C 1007.7 in /  34120.7 hPa WSW 4.8 mph /  7.7 km/h 24.1 mph /  38.8 km/h 90 % 0.0 in /  0 mm
13:57 14.9 °F /  -9.5 °C 13.4 °F /  -10.3 °C 1007.3 in /  34107.2 hPa WSW 11.3 mph /  18.2 km/h 24.1 mph /  38.8 km/h 91 % 0.0 in /  0 mm
14:02 15.2 °F /  -9.3 °C 13.6 °F /  -10.2 °C 1007.3 in /  34107.2 hPa WSW 14.5 mph /  23.3 km/h 16.1 mph /  25.9 km/h 90 % 0.0 in /  0 mm
14:12 15.7 °F /  -9.1 °C 13.4 °F /  -10.3 °C 1007.3 in /  34107.2 hPa West 6.4 mph /  10.3 km/h 19.3 mph /  31.1 km/h 86 % 0.0 in /  0 mm
14:17 15.1 °F /  -9.4 °C 12.6 °F /  -10.8 °C 1007.3 in /  34107.2 hPa West 9.7 mph /  15.6 km/h 19.3 mph /  31.1 km/h 85 % 0.0 in /  0 mm
14:22 14.8 °F /  -9.6 °C 12.8 °F /  -10.7 °C 1007.3 in /  34107.2 hPa West 20.9 mph /  33.6 km/h 40.2 mph /  64.7 km/h 88 % 0.0 in /  0 mm
14:32 14.4 °F /  -9.8 °C 12.9 °F /  -10.6 °C 1007.7 in /  34120.7 hPa West 6.4 mph /  10.3 km/h 37.0 mph /  59.5 km/h 91 % 0.3 in /  7.62 mm
14:42 15.3 °F /  -9.3 °C 13.7 °F /  -10.2 °C 1007.7 in /  34120.7 hPa WSW 12.9 mph /  20.8 km/h 19.3 mph /  31.1 km/h 90 % 0.3 in /  7.62 mm
14:52 16.1 °F /  -8.8 °C 13.9 °F /  -10.1 °C 1007.7 in /  34120.7 hPa West 11.3 mph /  18.2 km/h 29.0 mph /  46.7 km/h 87 % 0.3 in /  7.62 mm
14:57 16.1 °F /  -8.8 °C 13.4 °F /  -10.3 °C 1007.7 in /  34120.7 hPa WSW 11.3 mph /  18.2 km/h 29.0 mph /  46.7 km/h 84 % 0.3 in /  7.62 mm
15:02 15.9 °F /  -8.9 °C 13.0 °F /  -10.6 °C 1007.7 in /  34120.7 hPa WSW 8.0 mph /  12.9 km/h 30.6 mph /  49.2 km/h 83 % 0.3 in /  7.62 mm
15:12 15.2 °F /  -9.3 °C 13.0 °F /  -10.6 °C 1008.0 in /  34130.9 hPa WSW 12.9 mph /  20.8 km/h 25.7 mph /  41.4 km/h 87 % 0.5 in /  12.7 mm
15:22 14.9 °F /  -9.5 °C 13.1 °F /  -10.5 °C 1007.7 in /  34120.7 hPa SW 9.7 mph /  15.6 km/h 20.9 mph /  33.6 km/h 89 % 1.0 in /  25.4 mm
15:32 15.0 °F /  -9.4 °C 13.4 °F /  -10.3 °C 1007.7 in /  34120.7 hPa SSW 4.8 mph /  7.7 km/h 22.5 mph /  36.2 km/h 90 % 1.3 in /  33.02 mm
15:37 15.4 °F /  -9.2 °C 13.6 °F /  -10.2 °C 1007.7 in /  34120.7 hPa SW 9.7 mph /  15.6 km/h 22.5 mph /  36.2 km/h 89 % 1.3 in /  33.02 mm
15:42 16.0 °F /  -8.9 °C 13.8 °F /  -10.1 °C 1007.7 in /  34120.7 hPa WSW 12.9 mph /  20.8 km/h 22.5 mph /  36.2 km/h 87 % 1.3 in /  33.02 mm
15:52 16.6 °F /  -8.6 °C 14.1 °F /  -9.9 °C 1007.7 in /  34120.7 hPa SW 11.3 mph /  18.2 km/h 20.9 mph /  33.6 km/h 85 % 1.3 in /  33.02 mm
15:57 16.4 °F /  -8.7 °C 13.5 °F /  -10.3 °C 1008.0 in /  34130.9 hPa SSW 16.1 mph /  25.9 km/h 24.1 mph /  38.8 km/h 83 % 1.3 in /  33.02 mm
16:02 16.3 °F /  -8.7 °C 13.8 °F /  -10.1 °C 1008.0 in /  34130.9 hPa West 6.4 mph /  10.3 km/h 27.4 mph /  44.1 km/h 85 % 1.3 in /  33.02 mm
16:07 16.0 °F /  -8.9 °C 13.7 °F /  -10.2 °C 1008.0 in /  34130.9 hPa NW 6.4 mph /  10.3 km/h 27.4 mph /  44.1 km/h 86 % 1.3 in /  33.02 mm
16:12 15.8 °F /  -9 °C 13.3 °F /  -10.4 °C 1008.0 in /  34130.9 hPa WSW 9.7 mph /  15.6 km/h 27.4 mph /  44.1 km/h 85 % 1.3 in /  33.02 mm
16:17 15.4 °F /  -9.2 °C 13.2 °F /  -10.4 °C 1008.0 in /  34130.9 hPa SW 12.9 mph /  20.8 km/h 25.7 mph /  41.4 km/h 87 % 0.5 in /  12.7 mm
16:22 15.3 °F /  -9.3 °C 13.3 °F /  -10.4 °C 1008.0 in /  34130.9 hPa WSW 6.4 mph /  10.3 km/h 22.5 mph /  36.2 km/h 88 % 0.8 in /  20.32 mm
16:27 15.7 °F /  -9.1 °C 13.7 °F /  -10.2 °C 1008.0 in /  34130.9 hPa West 9.7 mph /  15.6 km/h 20.9 mph /  33.6 km/h 88 % 0.5 in /  12.7 mm
16:32 16.2 °F /  -8.8 °C 13.9 °F /  -10.1 °C 1008.0 in /  34130.9 hPa WSW 8.0 mph /  12.9 km/h 20.9 mph /  33.6 km/h 86 % 0.5 in /  12.7 mm
16:42 16.2 °F /  -8.8 °C 13.3 °F /  -10.4 °C 1008.0 in /  34130.9 hPa West 8.0 mph /  12.9 km/h 24.1 mph /  38.8 km/h 83 % 0.5 in /  12.7 mm
16:52 16.6 °F /  -8.6 °C 13.5 °F /  -10.3 °C 1008.0 in /  34130.9 hPa West 9.7 mph /  15.6 km/h 27.4 mph /  44.1 km/h 82 % 0.5 in /  12.7 mm
16:57 17.0 °F /  -8.3 °C 14.3 °F /  -9.8 °C 1008.0 in /  34130.9 hPa WNW 17.7 mph /  28.5 km/h 20.9 mph /  33.6 km/h 84 % 0.5 in /  12.7 mm
17:02 17.1 °F /  -8.3 °C 13.4 °F /  -10.3 °C 1008.4 in /  34144.4 hPa WSW 12.9 mph /  20.8 km/h 25.7 mph /  41.4 km/h 79 % 0.5 in /  12.7 mm
17:12 15.3 °F /  -9.3 °C 11.7 °F /  -11.3 °C 1008.4 in /  34144.4 hPa West 24.1 mph /  38.8 km/h 27.4 mph /  44.1 km/h 79 % 0.5 in /  12.7 mm
17:17 14.7 °F /  -9.6 °C 11.5 °F /  -11.4 °C 1008.7 in /  34154.6 hPa WNW 14.5 mph /  23.3 km/h 33.8 mph /  54.4 km/h 81 % 0.5 in /  12.7 mm
17:22 14.3 °F /  -9.8 °C 11.5 °F /  -11.4 °C 1008.7 in /  34154.6 hPa West 9.7 mph /  15.6 km/h 33.8 mph /  54.4 km/h 83 % 0.0 in /  0 mm
17:27 14.1 °F /  -9.9 °C 11.6 °F /  -11.3 °C 1008.7 in /  34154.6 hPa West 6.4 mph /  10.3 km/h 33.8 mph /  54.4 km/h 85 % 0.0 in /  0 mm
17:32 13.9 °F /  -10.1 °C 11.6 °F /  -11.3 °C 1008.7 in /  34154.6 hPa WNW 6.4 mph /  10.3 km/h 30.6 mph /  49.2 km/h 86 % 0.0 in /  0 mm
17:42 14.3 °F /  -9.8 °C 12.3 °F /  -10.9 °C 1008.7 in /  34154.6 hPa WNW 9.7 mph /  15.6 km/h 25.7 mph /  41.4 km/h 88 % 0.0 in /  0 mm
17:47 14.7 °F /  -9.6 °C 12.6 °F /  -10.8 °C 1008.7 in /  34154.6 hPa NW 6.4 mph /  10.3 km/h 16.1 mph /  25.9 km/h 87 % 0.0 in /  0 mm
17:52 15.4 °F /  -9.2 °C 12.9 °F /  -10.6 °C 1008.7 in /  34154.6 hPa WSW 14.5 mph /  23.3 km/h 16.1 mph /  25.9 km/h 85 % 0.0 in /  0 mm
17:57 15.8 °F /  -9 °C 12.7 °F /  -10.7 °C 1008.7 in /  34154.6 hPa West 22.5 mph /  36.2 km/h 22.5 mph /  36.2 km/h 82 % 0.0 in /  0 mm
18:07 16.2 °F /  -8.8 °C 13.1 °F /  -10.5 °C 1008.7 in /  34154.6 hPa West 9.7 mph /  15.6 km/h 27.4 mph /  44.1 km/h 82 % 0.0 in /  0 mm
18:12 16.3 °F /  -8.7 °C 13.2 °F /  -10.4 °C 1008.7 in /  34154.6 hPa West 6.4 mph /  10.3 km/h 27.4 mph /  44.1 km/h 82 % 0.0 in /  0 mm
18:17 16.3 °F /  -8.7 °C 13.0 °F /  -10.6 °C 1008.7 in /  34154.6 hPa West 11.3 mph /  18.2 km/h 22.5 mph /  36.2 km/h 81 % 0.0 in /  0 mm
18:22 16.4 °F /  -8.7 °C 13.1 °F /  -10.5 °C 1008.7 in /  34154.6 hPa WSW 17.7 mph /  28.5 km/h 22.5 mph /  36.2 km/h 81 % 0.0 in /  0 mm
18:27 16.3 °F /  -8.7 °C 12.8 °F /  -10.7 °C 1008.7 in /  34154.6 hPa NW 12.9 mph /  20.8 km/h 22.5 mph /  36.2 km/h 80 % 0.0 in /  0 mm
18:32 16.1 °F /  -8.8 °C 12.5 °F /  -10.8 °C 1009.0 in /  34164.7 hPa West 12.9 mph /  20.8 km/h 22.5 mph /  36.2 km/h 79 % 0.0 in /  0 mm
18:42 15.9 °F /  -8.9 °C 12.8 °F /  -10.7 °C 1009.0 in /  34164.7 hPa WSW 19.3 mph /  31.1 km/h 30.6 mph /  49.2 km/h 82 % 0.0 in /  0 mm
18:47 16.0 °F /  -8.9 °C 12.7 °F /  -10.7 °C 1009.4 in /  34178.3 hPa West 16.1 mph /  25.9 km/h 30.6 mph /  49.2 km/h 81 % 0.0 in /  0 mm
18:57 15.8 °F /  -9 °C 12.2 °F /  -11 °C 1009.4 in /  34178.3 hPa WNW 12.9 mph /  20.8 km/h 27.4 mph /  44.1 km/h 79 % 0.0 in /  0 mm
19:02 15.8 °F /  -9 °C 12.5 °F /  -10.8 °C 1009.4 in /  34178.3 hPa West 8.0 mph /  12.9 km/h 29.0 mph /  46.7 km/h 81 % 0.0 in /  0 mm
19:12 15.7 °F /  -9.1 °C 12.1 °F /  -11.1 °C 1009.4 in /  34178.3 hPa South 4.8 mph /  7.7 km/h 29.0 mph /  46.7 km/h 79 % 0.0 in /  0 mm
19:17 15.6 °F /  -9.1 °C 12.0 °F /  -11.1 °C 1009.4 in /  34178.3 hPa SW 14.5 mph /  23.3 km/h 24.1 mph /  38.8 km/h 79 % 0.0 in /  0 mm
19:22 15.7 °F /  -9.1 °C 12.3 °F /  -10.9 °C 1009.7 in /  34188.4 hPa WSW 8.0 mph /  12.9 km/h 24.1 mph /  38.8 km/h 80 % 0.0 in /  0 mm
19:32 15.6 °F /  -9.1 °C 12.4 °F /  -10.9 °C 1009.7 in /  34188.4 hPa SSE 8.0 mph /  12.9 km/h 24.1 mph /  38.8 km/h 81 % 0.0 in /  0 mm
19:42 15.4 °F /  -9.2 °C 12.3 °F /  -10.9 °C 1010.0 in /  34198.6 hPa SW 9.7 mph /  15.6 km/h 19.3 mph /  31.1 km/h 82 % 0.0 in /  0 mm
19:47 15.3 °F /  -9.3 °C 12.2 °F /  -11 °C 1010.0 in /  34198.6 hPa West 12.9 mph /  20.8 km/h 20.9 mph /  33.6 km/h 82 % 0.0 in /  0 mm
19:52 15.2 °F /  -9.3 °C 12.3 °F /  -10.9 °C 1010.0 in /  34198.6 hPa WSW 8.0 mph /  12.9 km/h 20.9 mph /  33.6 km/h 83 % 0.0 in /  0 mm
19:57 15.1 °F /  -9.4 °C 12.2 °F /  -11 °C 1010.0 in /  34198.6 hPa WSW 14.5 mph /  23.3 km/h 20.9 mph /  33.6 km/h 83 % 0.0 in /  0 mm
20:02 15.2 °F /  -9.3 °C 12.3 °F /  -10.9 °C 1010.0 in /  34198.6 hPa West 4.8 mph /  7.7 km/h 22.5 mph /  36.2 km/h 83 % 0.0 in /  0 mm
20:12 15.3 °F /  -9.3 °C 12.2 °F /  -11 °C 1010.0 in /  34198.6 hPa West 11.3 mph /  18.2 km/h 22.5 mph /  36.2 km/h 82 % 0.0 in /  0 mm
20:17 15.3 °F /  -9.3 °C 12.2 °F /  -11 °C 1010.4 in /  34212.1 hPa WSW 9.7 mph /  15.6 km/h 20.9 mph /  33.6 km/h 82 % 0.0 in /  0 mm
20:22 15.3 °F /  -9.3 °C 12.2 °F /  -11 °C 1010.4 in /  34212.1 hPa WSW 8.0 mph /  12.9 km/h 20.9 mph /  33.6 km/h 82 % 0.0 in /  0 mm
20:32 15.3 °F /  -9.3 °C 12.2 °F /  -11 °C 1010.4 in /  34212.1 hPa WSW 8.0 mph /  12.9 km/h 19.3 mph /  31.1 km/h 82 % 0.0 in /  0 mm
20:37 15.3 °F /  -9.3 °C 12.2 °F /  -11 °C 1010.4 in /  34212.1 hPa WSW 14.5 mph /  23.3 km/h 20.9 mph /  33.6 km/h 82 % 0.0 in /  0 mm
20:42 15.2 °F /  -9.3 °C 12.1 °F /  -11.1 °C 1010.7 in /  34222.3 hPa WSW 6.4 mph /  10.3 km/h 20.9 mph /  33.6 km/h 82 % 0.0 in /  0 mm
20:47 15.2 °F /  -9.3 °C 12.1 °F /  -11.1 °C 1010.7 in /  34222.3 hPa WSW 16.1 mph /  25.9 km/h 19.3 mph /  31.1 km/h 82 % 0.0 in /  0 mm
20:52 15.1 °F /  -9.4 °C 12.0 °F /  -11.1 °C 1010.7 in /  34222.3 hPa SW 4.8 mph /  7.7 km/h 16.1 mph /  25.9 km/h 82 % 0.0 in /  0 mm
21:02 15.0 °F /  -9.4 °C 12.1 °F /  -11.1 °C 1010.7 in /  34222.3 hPa West 6.4 mph /  10.3 km/h 17.7 mph /  28.5 km/h 83 % 0.0 in /  0 mm
21:12 14.5 °F /  -9.7 °C 12.0 °F /  -11.1 °C 1011.1 in /  34235.8 hPa WSW 12.9 mph /  20.8 km/h 16.1 mph /  25.9 km/h 85 % 0.0 in /  0 mm
21:17 14.0 °F /  -10 °C 11.7 °F /  -11.3 °C 1011.1 in /  34235.8 hPa West 9.7 mph /  15.6 km/h 25.7 mph /  41.4 km/h 86 % 0.0 in /  0 mm
21:22 13.7 °F /  -10.2 °C 11.7 °F /  -11.3 °C 1011.1 in /  34235.8 hPa SW 9.7 mph /  15.6 km/h 27.4 mph /  44.1 km/h 88 % 0.0 in /  0 mm
21:32 13.3 °F /  -10.4 °C 11.7 °F /  -11.3 °C 1011.4 in /  34246 hPa WSW 9.7 mph /  15.6 km/h 29.0 mph /  46.7 km/h 90 % 0.0 in /  0 mm
21:42 13.3 °F /  -10.4 °C 11.7 °F /  -11.3 °C 1011.4 in /  34246 hPa WSW 11.3 mph /  18.2 km/h 19.3 mph /  31.1 km/h 90 % 0.0 in /  0 mm
21:52 13.3 °F /  -10.4 °C 11.7 °F /  -11.3 °C 1011.7 in /  34256.2 hPa SSW 3.2 mph /  5.1 km/h 14.5 mph /  23.3 km/h 90 % 0.0 in /  0 mm
21:57 13.3 °F /  -10.4 °C 11.7 °F /  -11.3 °C 1011.4 in /  34246 hPa SSW 6.4 mph /  10.3 km/h 12.9 mph /  20.8 km/h 90 % 0.0 in /  0 mm
22:02 13.3 °F /  -10.4 °C 11.7 °F /  -11.3 °C 1011.7 in /  34256.2 hPa WSW 6.4 mph /  10.3 km/h 9.7 mph /  15.6 km/h 90 % 0.0 in /  0 mm
22:12 13.3 °F /  -10.4 °C 11.7 °F /  -11.3 °C 1011.7 in /  34256.2 hPa SW 4.8 mph /  7.7 km/h 9.7 mph /  15.6 km/h 90 % 0.0 in /  0 mm
22:17 13.4 °F /  -10.3 °C 11.8 °F /  -11.2 °C 1011.7 in /  34256.2 hPa SW 4.8 mph /  7.7 km/h 11.3 mph /  18.2 km/h 90 % 0.0 in /  0 mm
22:22 13.4 °F /  -10.3 °C 11.8 °F /  -11.2 °C 1012.1 in /  34269.7 hPa West 8.0 mph /  12.9 km/h 11.3 mph /  18.2 km/h 90 % 0.0 in /  0 mm
22:27 13.4 °F /  -10.3 °C 11.8 °F /  -11.2 °C 1012.1 in /  34269.7 hPa SW 6.4 mph /  10.3 km/h 11.3 mph /  18.2 km/h 90 % 0.0 in /  0 mm
22:32 13.4 °F /  -10.3 °C 12.0 °F /  -11.1 °C 1012.1 in /  34269.7 hPa SW 3.2 mph /  5.1 km/h 12.9 mph /  20.8 km/h 91 % 0.0 in /  0 mm
22:37 13.4 °F /  -10.3 °C 12.0 °F /  -11.1 °C 1012.1 in /  34269.7 hPa West 4.8 mph /  7.7 km/h 12.9 mph /  20.8 km/h 91 % 0.0 in /  0 mm
22:42 13.4 °F /  -10.3 °C 12.0 °F /  -11.1 °C 1012.4 in /  34279.9 hPa SW 3.2 mph /  5.1 km/h 12.9 mph /  20.8 km/h 91 % 0.0 in /  0 mm
22:52 13.4 °F /  -10.3 °C 12.0 °F /  -11.1 °C 1012.4 in /  34279.9 hPa WSW 3.2 mph /  5.1 km/h 11.3 mph /  18.2 km/h 91 % 0.0 in /  0 mm
22:57 13.3 °F /  -10.4 °C 11.9 °F /  -11.2 °C 1012.4 in /  34279.9 hPa SW 3.2 mph /  5.1 km/h 9.7 mph /  15.6 km/h 91 % 0.0 in /  0 mm
23:02 13.3 °F /  -10.4 °C 12.0 °F /  -11.1 °C 1012.4 in /  34279.9 hPa SW 6.4 mph /  10.3 km/h 9.7 mph /  15.6 km/h 92 % 0.0 in /  0 mm
23:07 13.3 °F /  -10.4 °C 12.0 °F /  -11.1 °C 1012.4 in /  34279.9 hPa SW 6.4 mph /  10.3 km/h 9.7 mph /  15.6 km/h 92 % 0.0 in /  0 mm
23:12 13.3 °F /  -10.4 °C 12.0 °F /  -11.1 °C 1012.8 in /  34293.4 hPa SW 3.2 mph /  5.1 km/h 9.7 mph /  15.6 km/h 92 % 0.0 in /  0 mm
23:17 13.3 °F /  -10.4 °C 11.9 °F /  -11.2 °C 1012.8 in /  34293.4 hPa SW 11.3 mph /  18.2 km/h 11.3 mph /  18.2 km/h 91 % 0.0 in /  0 mm
23:22 13.3 °F /  -10.4 °C 11.9 °F /  -11.2 °C 1012.8 in /  34293.4 hPa SW 11.3 mph /  18.2 km/h 11.3 mph /  18.2 km/h 91 % 0.0 in /  0 mm
23:32 13.2 °F /  -10.4 °C 11.6 °F /  -11.3 °C 1012.8 in /  34293.4 hPa SW 8.0 mph /  12.9 km/h 17.7 mph /  28.5 km/h 90 % 0.0 in /  0 mm
23:37 13.2 °F /  -10.4 °C 11.6 °F /  -11.3 °C 1012.8 in /  34293.4 hPa SW 14.5 mph /  23.3 km/h 19.3 mph /  31.1 km/h 90 % 0.0 in /  0 mm
23:42 13.2 °F /  -10.4 °C 11.6 °F /  -11.3 °C 1012.8 in /  34293.4 hPa South 6.4 mph /  10.3 km/h 19.3 mph /  31.1 km/h 90 % 0.0 in /  0 mm
23:47 13.1 °F /  -10.5 °C 11.5 °F /  -11.4 °C 1012.8 in /  34293.4 hPa WSW 3.2 mph /  5.1 km/h 17.7 mph /  28.5 km/h 90 % 0.0 in /  0 mm
23:52 13.1 °F /  -10.5 °C 11.7 °F /  -11.3 °C 1012.8 in /  34293.4 hPa SW 6.4 mph /  10.3 km/h 17.7 mph /  28.5 km/h 91 % 0.0 in /  0 mm
23:57 13.1 °F /  -10.5 °C 11.7 °F /  -11.3 °C 1013.1 in /  34303.6 hPa SSW 4.8 mph /  7.7 km/h 17.7 mph /  28.5 km/h 91 % 0.0 in /  0 mm
Meteo18
Compliments of Weather Underground - 4 mb

Script developed by  Jim McMurry - jmcmurry@mwt.net Adapted for the template by  Wim van der Kuil - Leuven-Template.eu

You find our weather info also at:

European Weather Network

Weather Underground

Equipment we use:

Weather-station
Davis Vue

Weather-program
Meteobridge

Weather-server
Raspberry PI 2 B+

Provider
1 and 1

Davis Vue

Meteobridge

Raspberry PI 2 B+

1 and 1